sensor_id;sensor_type;location;lat;lon;timestamp;P1;durP1;ratioP1;P2;durP2;ratioP2
35917;SDS011;22011;59.912;30.300;2024-02-26T00:01:32;7.30;;;3.92;;
35917;SDS011;22011;59.912;30.300;2024-02-26T00:04:00;8.02;;;4.82;;
35917;SDS011;22011;59.912;30.300;2024-02-26T00:06:28;8.40;;;5.05;;
35917;SDS011;22011;59.912;30.300;2024-02-26T00:08:56;7.53;;;4.47;;
35917;SDS011;22011;59.912;30.300;2024-02-26T00:11:25;7.25;;;4.75;;
35917;SDS011;22011;59.912;30.300;2024-02-26T00:13:53;7.45;;;4.97;;
35917;SDS011;22011;59.912;30.300;2024-02-26T00:16:21;7.47;;;4.28;;
35917;SDS011;22011;59.912;30.300;2024-02-26T00:18:48;7.20;;;4.50;;
35917;SDS011;22011;59.912;30.300;2024-02-26T00:21:16;5.65;;;3.65;;
35917;SDS011;22011;59.912;30.300;2024-02-26T00:23:44;5.65;;;3.90;;
35917;SDS011;22011;59.912;30.300;2024-02-26T00:26:11;9.05;;;4.57;;
35917;SDS011;22011;59.912;30.300;2024-02-26T00:28:42;6.93;;;4.18;;
35917;SDS011;22011;59.912;30.300;2024-02-26T00:31:10;6.38;;;4.05;;
35917;SDS011;22011;59.912;30.300;2024-02-26T00:33:38;6.50;;;3.80;;
35917;SDS011;22011;59.912;30.300;2024-02-26T00:36:06;5.65;;;3.88;;
35917;SDS011;22011;59.912;30.300;2024-02-26T00:38:33;7.63;;;3.85;;
35917;SDS011;22011;59.912;30.300;2024-02-26T00:41:02;4.97;;;3.83;;
35917;SDS011;22011;59.912;30.300;2024-02-26T00:43:30;5.38;;;3.30;;
35917;SDS011;22011;59.912;30.300;2024-02-26T00:45:59;6.32;;;3.70;;
35917;SDS011;22011;59.912;30.300;2024-02-26T00:48:26;5.70;;;3.30;;
35917;SDS011;22011;59.912;30.300;2024-02-26T00:50:54;6.43;;;4.00;;
35917;SDS011;22011;59.912;30.300;2024-02-26T00:53:22;6.47;;;3.45;;
35917;SDS011;22011;59.912;30.300;2024-02-26T00:55:50;5.55;;;4.18;;
35917;SDS011;22011;59.912;30.300;2024-02-26T00:58:18;7.53;;;3.85;;
35917;SDS011;22011;59.912;30.300;2024-02-26T01:00:46;6.47;;;3.72;;
35917;SDS011;22011;59.912;30.300;2024-02-26T01:03:15;5.10;;;3.45;;
35917;SDS011;22011;59.912;30.300;2024-02-26T01:05:44;7.60;;;4.10;;
35917;SDS011;22011;59.912;30.300;2024-02-26T01:08:11;6.32;;;3.90;;
35917;SDS011;22011;59.912;30.300;2024-02-26T01:10:38;6.18;;;4.07;;
35917;SDS011;22011;59.912;30.300;2024-02-26T01:13:06;6.68;;;3.35;;
35917;SDS011;22011;59.912;30.300;2024-02-26T01:15:34;5.15;;;3.63;;
35917;SDS011;22011;59.912;30.300;2024-02-26T01:18:01;6.10;;;3.97;;
35917;SDS011;22011;59.912;30.300;2024-02-26T01:20:30;6.40;;;3.88;;
35917;SDS011;22011;59.912;30.300;2024-02-26T01:22:58;7.47;;;4.35;;
35917;SDS011;22011;59.912;30.300;2024-02-26T01:25:26;6.68;;;3.63;;
35917;SDS011;22011;59.912;30.300;2024-02-26T01:27:54;7.35;;;4.30;;
35917;SDS011;22011;59.912;30.300;2024-02-26T01:30:21;6.85;;;3.95;;
35917;SDS011;22011;59.912;30.300;2024-02-26T01:32:49;5.63;;;4.03;;
35917;SDS011;22011;59.912;30.300;2024-02-26T01:35:17;5.95;;;3.70;;
35917;SDS011;22011;59.912;30.300;2024-02-26T01:37:47;6.40;;;3.67;;
35917;SDS011;22011;59.912;30.300;2024-02-26T01:40:15;9.00;;;4.43;;
35917;SDS011;22011;59.912;30.300;2024-02-26T01:42:45;5.78;;;3.65;;
35917;SDS011;22011;59.912;30.300;2024-02-26T01:45:15;9.82;;;3.88;;
35917;SDS011;22011;59.912;30.300;2024-02-26T01:47:48;6.97;;;4.00;;
35917;SDS011;22011;59.912;30.300;2024-02-26T01:50:17;5.68;;;3.38;;
35917;SDS011;22011;59.912;30.300;2024-02-26T01:52:47;5.47;;;3.83;;
35917;SDS011;22011;59.912;30.300;2024-02-26T01:57:45;10.18;;;3.92;;
35917;SDS011;22011;59.912;30.300;2024-02-26T02:00:15;6.43;;;3.85;;
35917;SDS011;22011;59.912;30.300;2024-02-26T02:02:43;7.18;;;4.15;;
35917;SDS011;22011;59.912;30.300;2024-02-26T02:05:13;8.57;;;3.60;;
35917;SDS011;22011;59.912;30.300;2024-02-26T02:07:43;6.13;;;3.65;;
35917;SDS011;22011;59.912;30.300;2024-02-26T02:10:12;7.53;;;4.20;;
35917;SDS011;22011;59.912;30.300;2024-02-26T02:12:40;8.00;;;4.50;;
35917;SDS011;22011;59.912;30.300;2024-02-26T02:15:08;6.65;;;3.70;;
35917;SDS011;22011;59.912;30.300;2024-02-26T02:17:36;8.60;;;4.32;;
35917;SDS011;22011;59.912;30.300;2024-02-26T02:20:04;8.70;;;4.28;;
35917;SDS011;22011;59.912;30.300;2024-02-26T02:22:37;8.70;;;4.57;;
35917;SDS011;22011;59.912;30.300;2024-02-26T02:25:05;7.72;;;4.50;;
35917;SDS011;22011;59.912;30.300;2024-02-26T02:27:33;7.55;;;4.53;;
35917;SDS011;22011;59.912;30.300;2024-02-26T02:30:01;7.95;;;4.10;;
35917;SDS011;22011;59.912;30.300;2024-02-26T02:32:29;6.78;;;4.72;;
35917;SDS011;22011;59.912;30.300;2024-02-26T02:34:57;9.45;;;4.82;;
35917;SDS011;22011;59.912;30.300;2024-02-26T02:37:26;11.02;;;5.47;;
35917;SDS011;22011;59.912;30.300;2024-02-26T02:39:55;8.80;;;5.10;;
35917;SDS011;22011;59.912;30.300;2024-02-26T02:42:23;7.68;;;4.63;;
35917;SDS011;22011;59.912;30.300;2024-02-26T02:44:51;7.18;;;4.00;;
35917;SDS011;22011;59.912;30.300;2024-02-26T02:47:19;9.25;;;4.68;;
35917;SDS011;22011;59.912;30.300;2024-02-26T02:49:45;10.77;;;4.32;;
35917;SDS011;22011;59.912;30.300;2024-02-26T02:52:13;7.80;;;4.90;;
35917;SDS011;22011;59.912;30.300;2024-02-26T02:54:40;6.85;;;4.03;;
35917;SDS011;22011;59.912;30.300;2024-02-26T02:57:10;6.80;;;4.00;;
35917;SDS011;22011;59.912;30.300;2024-02-26T02:59:37;7.72;;;4.68;;
35917;SDS011;22011;59.912;30.300;2024-02-26T03:02:05;9.52;;;4.68;;
35917;SDS011;22011;59.912;30.300;2024-02-26T03:04:33;9.93;;;4.68;;
35917;SDS011;22011;59.912;30.300;2024-02-26T03:07:01;9.18;;;5.70;;
35917;SDS011;22011;59.912;30.300;2024-02-26T03:09:28;7.88;;;4.72;;
35917;SDS011;22011;59.912;30.300;2024-02-26T03:11:56;12.23;;;5.82;;
35917;SDS011;22011;59.912;30.300;2024-02-26T03:14:25;9.48;;;6.35;;
35917;SDS011;22011;59.912;30.300;2024-02-26T03:16:53;9.90;;;5.93;;
35917;SDS011;22011;59.912;30.300;2024-02-26T03:19:21;11.82;;;7.03;;
35917;SDS011;22011;59.912;30.300;2024-02-26T03:21:49;11.25;;;6.45;;
35917;SDS011;22011;59.912;30.300;2024-02-26T03:24:17;12.38;;;6.75;;
35917;SDS011;22011;59.912;30.300;2024-02-26T03:26:44;11.93;;;6.28;;
35917;SDS011;22011;59.912;30.300;2024-02-26T03:29:12;10.30;;;6.53;;
35917;SDS011;22011;59.912;30.300;2024-02-26T03:31:41;10.60;;;6.57;;
35917;SDS011;22011;59.912;30.300;2024-02-26T03:34:09;12.52;;;5.97;;
35917;SDS011;22011;59.912;30.300;2024-02-26T03:36:38;11.82;;;6.28;;
35917;SDS011;22011;59.912;30.300;2024-02-26T03:39:06;11.20;;;6.57;;
35917;SDS011;22011;59.912;30.300;2024-02-26T03:41:33;9.75;;;6.43;;
35917;SDS011;22011;59.912;30.300;2024-02-26T03:44:02;8.75;;;6.38;;
35917;SDS011;22011;59.912;30.300;2024-02-26T03:46:29;12.63;;;7.43;;
35917;SDS011;22011;59.912;30.300;2024-02-26T03:48:59;14.20;;;7.05;;
35917;SDS011;22011;59.912;30.300;2024-02-26T03:51:26;11.68;;;8.00;;
35917;SDS011;22011;59.912;30.300;2024-02-26T03:53:57;11.02;;;6.88;;
35917;SDS011;22011;59.912;30.300;2024-02-26T03:56:25;10.20;;;6.20;;
35917;SDS011;22011;59.912;30.300;2024-02-26T03:58:52;10.38;;;6.90;;
35917;SDS011;22011;59.912;30.300;2024-02-26T04:01:20;12.07;;;6.60;;
35917;SDS011;22011;59.912;30.300;2024-02-26T04:03:48;12.68;;;6.25;;
35917;SDS011;22011;59.912;30.300;2024-02-26T04:06:17;10.55;;;6.50;;
35917;SDS011;22011;59.912;30.300;2024-02-26T04:08:46;9.10;;;5.75;;
35917;SDS011;22011;59.912;30.300;2024-02-26T04:11:14;8.15;;;5.80;;
35917;SDS011;22011;59.912;30.300;2024-02-26T04:13:43;9.57;;;6.15;;
35917;SDS011;22011;59.912;30.300;2024-02-26T04:16:15;11.93;;;6.40;;
35917;SDS011;22011;59.912;30.300;2024-02-26T04:18:43;8.77;;;5.72;;
35917;SDS011;22011;59.912;30.300;2024-02-26T04:21:10;10.70;;;7.05;;
35917;SDS011;22011;59.912;30.300;2024-02-26T04:23:39;10.30;;;6.53;;
35917;SDS011;22011;59.912;30.300;2024-02-26T04:26:07;9.32;;;6.60;;
35917;SDS011;22011;59.912;30.300;2024-02-26T04:28:35;9.85;;;6.28;;
35917;SDS011;22011;59.912;30.300;2024-02-26T04:31:03;10.05;;;5.90;;
35917;SDS011;22011;59.912;30.300;2024-02-26T04:33:33;9.38;;;6.15;;
35917;SDS011;22011;59.912;30.300;2024-02-26T04:36:01;10.43;;;5.82;;
35917;SDS011;22011;59.912;30.300;2024-02-26T04:38:30;12.20;;;6.00;;
35917;SDS011;22011;59.912;30.300;2024-02-26T04:40:59;11.45;;;6.68;;
35917;SDS011;22011;59.912;30.300;2024-02-26T04:43:26;9.35;;;5.93;;
35917;SDS011;22011;59.912;30.300;2024-02-26T04:45:54;10.20;;;5.95;;
35917;SDS011;22011;59.912;30.300;2024-02-26T04:48:22;11.38;;;6.13;;
35917;SDS011;22011;59.912;30.300;2024-02-26T04:50:50;12.07;;;6.32;;
35917;SDS011;22011;59.912;30.300;2024-02-26T04:53:18;11.07;;;6.80;;
35917;SDS011;22011;59.912;30.300;2024-02-26T04:55:45;12.43;;;6.85;;
35917;SDS011;22011;59.912;30.300;2024-02-26T04:58:14;12.10;;;6.63;;
35917;SDS011;22011;59.912;30.300;2024-02-26T05:00:42;9.20;;;5.72;;
35917;SDS011;22011;59.912;30.300;2024-02-26T05:03:10;10.13;;;6.38;;
35917;SDS011;22011;59.912;30.300;2024-02-26T05:05:39;8.95;;;5.68;;
35917;SDS011;22011;59.912;30.300;2024-02-26T05:08:07;13.13;;;6.05;;
35917;SDS011;22011;59.912;30.300;2024-02-26T05:10:35;9.82;;;6.07;;
35917;SDS011;22011;59.912;30.300;2024-02-26T05:13:06;8.32;;;5.93;;
35917;SDS011;22011;59.912;30.300;2024-02-26T05:15:35;11.43;;;5.40;;
35917;SDS011;22011;59.912;30.300;2024-02-26T05:18:03;9.38;;;6.18;;
35917;SDS011;22011;59.912;30.300;2024-02-26T05:20:31;13.50;;;6.82;;
35917;SDS011;22011;59.912;30.300;2024-02-26T05:23:01;10.00;;;6.25;;
35917;SDS011;22011;59.912;30.300;2024-02-26T05:25:29;12.75;;;6.82;;
35917;SDS011;22011;59.912;30.300;2024-02-26T05:27:57;9.45;;;6.22;;
35917;SDS011;22011;59.912;30.300;2024-02-26T05:30:25;12.82;;;6.97;;
35917;SDS011;22011;59.912;30.300;2024-02-26T05:32:55;10.25;;;6.90;;
35917;SDS011;22011;59.912;30.300;2024-02-26T05:35:23;12.60;;;6.75;;
35917;SDS011;22011;59.912;30.300;2024-02-26T05:37:51;10.38;;;5.22;;
35917;SDS011;22011;59.912;30.300;2024-02-26T05:40:19;10.13;;;6.03;;
35917;SDS011;22011;59.912;30.300;2024-02-26T05:42:47;9.23;;;5.72;;
35917;SDS011;22011;59.912;30.300;2024-02-26T05:45:15;11.32;;;5.82;;
35917;SDS011;22011;59.912;30.300;2024-02-26T05:47:43;10.82;;;6.03;;
35917;SDS011;22011;59.912;30.300;2024-02-26T05:50:12;8.90;;;6.10;;
35917;SDS011;22011;59.912;30.300;2024-02-26T05:52:41;16.95;;;6.45;;
35917;SDS011;22011;59.912;30.300;2024-02-26T05:55:09;13.82;;;6.88;;
35917;SDS011;22011;59.912;30.300;2024-02-26T05:57:36;11.77;;;7.22;;
35917;SDS011;22011;59.912;30.300;2024-02-26T06:00:04;12.82;;;7.30;;
35917;SDS011;22011;59.912;30.300;2024-02-26T06:02:38;12.30;;;6.60;;
35917;SDS011;22011;59.912;30.300;2024-02-26T06:05:06;15.40;;;8.25;;
35917;SDS011;22011;59.912;30.300;2024-02-26T06:07:36;16.23;;;7.90;;
35917;SDS011;22011;59.912;30.300;2024-02-26T06:10:04;15.40;;;9.75;;
35917;SDS011;22011;59.912;30.300;2024-02-26T06:12:34;18.13;;;8.52;;
35917;SDS011;22011;59.912;30.300;2024-02-26T06:15:02;15.23;;;8.38;;
35917;SDS011;22011;59.912;30.300;2024-02-26T06:17:30;12.95;;;7.32;;
35917;SDS011;22011;59.912;30.300;2024-02-26T06:19:58;13.60;;;7.78;;
35917;SDS011;22011;59.912;30.300;2024-02-26T06:22:26;19.52;;;9.27;;
35917;SDS011;22011;59.912;30.300;2024-02-26T06:24:55;18.67;;;8.32;;
35917;SDS011;22011;59.912;30.300;2024-02-26T06:27:23;15.45;;;7.68;;
35917;SDS011;22011;59.912;30.300;2024-02-26T06:29:51;17.48;;;8.25;;
35917;SDS011;22011;59.912;30.300;2024-02-26T06:32:18;22.25;;;7.72;;
35917;SDS011;22011;59.912;30.300;2024-02-26T06:34:46;15.77;;;7.88;;
35917;SDS011;22011;59.912;30.300;2024-02-26T06:37:14;15.45;;;7.30;;
35917;SDS011;22011;59.912;30.300;2024-02-26T06:39:41;14.10;;;7.18;;
35917;SDS011;22011;59.912;30.300;2024-02-26T06:42:11;11.13;;;6.75;;
35917;SDS011;22011;59.912;30.300;2024-02-26T06:44:38;24.58;;;8.30;;
35917;SDS011;22011;59.912;30.300;2024-02-26T06:47:06;14.80;;;6.32;;
35917;SDS011;22011;59.912;30.300;2024-02-26T06:49:34;19.23;;;7.50;;
35917;SDS011;22011;59.912;30.300;2024-02-26T06:52:01;19.95;;;8.32;;
35917;SDS011;22011;59.912;30.300;2024-02-26T06:54:30;20.45;;;8.25;;
35917;SDS011;22011;59.912;30.300;2024-02-26T06:56:58;15.18;;;7.82;;
35917;SDS011;22011;59.912;30.300;2024-02-26T06:59:27;20.42;;;8.25;;
35917;SDS011;22011;59.912;30.300;2024-02-26T07:01:55;22.60;;;8.15;;
35917;SDS011;22011;59.912;30.300;2024-02-26T07:04:22;17.35;;;8.43;;
35917;SDS011;22011;59.912;30.300;2024-02-26T07:06:50;22.02;;;7.75;;
35917;SDS011;22011;59.912;30.300;2024-02-26T07:09:18;13.70;;;6.75;;
35917;SDS011;22011;59.912;30.300;2024-02-26T07:11:45;13.00;;;7.55;;
35917;SDS011;22011;59.912;30.300;2024-02-26T07:14:13;15.35;;;6.88;;
35917;SDS011;22011;59.912;30.300;2024-02-26T07:16:42;11.30;;;6.85;;
35917;SDS011;22011;59.912;30.300;2024-02-26T07:19:10;20.00;;;7.82;;
35917;SDS011;22011;59.912;30.300;2024-02-26T07:21:38;16.90;;;7.95;;
35917;SDS011;22011;59.912;30.300;2024-02-26T07:24:06;14.85;;;7.40;;
35917;SDS011;22011;59.912;30.300;2024-02-26T07:26:33;27.13;;;7.70;;
35917;SDS011;22011;59.912;30.300;2024-02-26T07:29:01;17.58;;;7.15;;
35917;SDS011;22011;59.912;30.300;2024-02-26T07:31:30;15.02;;;8.05;;
35917;SDS011;22011;59.912;30.300;2024-02-26T07:33:59;24.98;;;8.10;;
35917;SDS011;22011;59.912;30.300;2024-02-26T07:36:26;18.73;;;7.82;;
35917;SDS011;22011;59.912;30.300;2024-02-26T07:38:54;25.77;;;7.22;;
35917;SDS011;22011;59.912;30.300;2024-02-26T07:41:22;19.30;;;8.25;;
35917;SDS011;22011;59.912;30.300;2024-02-26T07:43:49;16.10;;;7.38;;
35917;SDS011;22011;59.912;30.300;2024-02-26T07:46:17;16.42;;;8.27;;
35917;SDS011;22011;59.912;30.300;2024-02-26T07:48:45;13.35;;;7.95;;
35917;SDS011;22011;59.912;30.300;2024-02-26T07:51:14;14.05;;;7.45;;
35917;SDS011;22011;59.912;30.300;2024-02-26T07:53:41;35.15;;;8.68;;
35917;SDS011;22011;59.912;30.300;2024-02-26T07:56:09;12.45;;;8.05;;
35917;SDS011;22011;59.912;30.300;2024-02-26T07:58:37;17.75;;;8.55;;
35917;SDS011;22011;59.912;30.300;2024-02-26T08:01:05;13.00;;;8.07;;
35917;SDS011;22011;59.912;30.300;2024-02-26T08:03:32;14.45;;;7.78;;
35917;SDS011;22011;59.912;30.300;2024-02-26T08:06:01;14.98;;;7.50;;
35917;SDS011;22011;59.912;30.300;2024-02-26T08:08:30;21.27;;;9.70;;
35917;SDS011;22011;59.912;30.300;2024-02-26T08:10:57;17.27;;;7.43;;
35917;SDS011;22011;59.912;30.300;2024-02-26T08:13:25;13.25;;;7.00;;
35917;SDS011;22011;59.912;30.300;2024-02-26T08:15:53;16.85;;;8.48;;
35917;SDS011;22011;59.912;30.300;2024-02-26T08:18:21;21.65;;;8.18;;
35917;SDS011;22011;59.912;30.300;2024-02-26T08:20:48;16.75;;;6.90;;
35917;SDS011;22011;59.912;30.300;2024-02-26T08:23:16;18.33;;;6.80;;
35917;SDS011;22011;59.912;30.300;2024-02-26T08:25:47;21.65;;;8.65;;
35917;SDS011;22011;59.912;30.300;2024-02-26T08:28:17;10.90;;;5.25;;
35917;SDS011;22011;59.912;30.300;2024-02-26T08:30:45;15.18;;;6.47;;
35917;SDS011;22011;59.912;30.300;2024-02-26T08:33:13;24.77;;;7.57;;
35917;SDS011;22011;59.912;30.300;2024-02-26T08:35:41;16.77;;;6.00;;
35917;SDS011;22011;59.912;30.300;2024-02-26T08:38:08;14.00;;;5.38;;
35917;SDS011;22011;59.912;30.300;2024-02-26T08:40:36;9.60;;;5.30;;
35917;SDS011;22011;59.912;30.300;2024-02-26T08:43:05;8.38;;;4.18;;
35917;SDS011;22011;59.912;30.300;2024-02-26T08:45:34;6.88;;;4.35;;
35917;SDS011;22011;59.912;30.300;2024-02-26T08:48:02;6.93;;;4.60;;
35917;SDS011;22011;59.912;30.300;2024-02-26T08:50:29;10.35;;;5.13;;
35917;SDS011;22011;59.912;30.300;2024-02-26T08:52:57;11.05;;;4.15;;
35917;SDS011;22011;59.912;30.300;2024-02-26T08:55:27;6.20;;;5.07;;
35917;SDS011;22011;59.912;30.300;2024-02-26T08:57:54;15.27;;;5.30;;
35917;SDS011;22011;59.912;30.300;2024-02-26T09:00:23;8.95;;;4.55;;
35917;SDS011;22011;59.912;30.300;2024-02-26T09:02:51;6.57;;;4.25;;
35917;SDS011;22011;59.912;30.300;2024-02-26T09:05:19;7.72;;;4.10;;
35917;SDS011;22011;59.912;30.300;2024-02-26T09:07:46;6.78;;;4.13;;
35917;SDS011;22011;59.912;30.300;2024-02-26T09:10:14;6.07;;;4.30;;
35917;SDS011;22011;59.912;30.300;2024-02-26T09:12:42;5.57;;;3.80;;
35917;SDS011;22011;59.912;30.300;2024-02-26T09:15:10;9.55;;;3.80;;
35917;SDS011;22011;59.912;30.300;2024-02-26T09:17:40;5.68;;;3.53;;
35917;SDS011;22011;59.912;30.300;2024-02-26T09:20:07;7.28;;;3.80;;
35917;SDS011;22011;59.912;30.300;2024-02-26T09:22:36;5.32;;;4.00;;
35917;SDS011;22011;59.912;30.300;2024-02-26T09:25:05;4.60;;;3.88;;
35917;SDS011;22011;59.912;30.300;2024-02-26T09:27:33;5.55;;;3.55;;
35917;SDS011;22011;59.912;30.300;2024-02-26T09:30:01;4.50;;;3.45;;
35917;SDS011;22011;59.912;30.300;2024-02-26T09:32:30;4.77;;;4.07;;
35917;SDS011;22011;59.912;30.300;2024-02-26T09:34:59;5.18;;;3.67;;
35917;SDS011;22011;59.912;30.300;2024-02-26T09:37:27;6.75;;;3.63;;
35917;SDS011;22011;59.912;30.300;2024-02-26T09:39:54;6.63;;;4.15;;
35917;SDS011;22011;59.912;30.300;2024-02-26T09:42:23;5.75;;;4.00;;
35917;SDS011;22011;59.912;30.300;2024-02-26T09:44:53;8.45;;;3.53;;
35917;SDS011;22011;59.912;30.300;2024-02-26T09:47:23;9.15;;;3.35;;
35917;SDS011;22011;59.912;30.300;2024-02-26T09:49:51;4.78;;;3.13;;
35917;SDS011;22011;59.912;30.300;2024-02-26T09:52:21;7.68;;;3.85;;
35917;SDS011;22011;59.912;30.300;2024-02-26T09:54:51;5.15;;;3.25;;
35917;SDS011;22011;59.912;30.300;2024-02-26T09:57:19;9.43;;;4.47;;
35917;SDS011;22011;59.912;30.300;2024-02-26T09:59:51;4.90;;;3.28;;
35917;SDS011;22011;59.912;30.300;2024-02-26T10:02:21;4.43;;;3.30;;
35917;SDS011;22011;59.912;30.300;2024-02-26T10:04:49;7.70;;;3.50;;
35917;SDS011;22011;59.912;30.300;2024-02-26T10:07:19;5.35;;;3.03;;
35917;SDS011;22011;59.912;30.300;2024-02-26T10:09:49;8.60;;;3.00;;
35917;SDS011;22011;59.912;30.300;2024-02-26T10:12:17;7.15;;;3.33;;
35917;SDS011;22011;59.912;30.300;2024-02-26T10:14:45;6.63;;;3.47;;
35917;SDS011;22011;59.912;30.300;2024-02-26T10:17:13;5.95;;;3.42;;
35917;SDS011;22011;59.912;30.300;2024-02-26T10:19:41;7.10;;;3.50;;
35917;SDS011;22011;59.912;30.300;2024-02-26T10:22:08;8.10;;;3.40;;
35917;SDS011;22011;59.912;30.300;2024-02-26T10:24:36;3.88;;;2.72;;
35917;SDS011;22011;59.912;30.300;2024-02-26T10:27:05;3.67;;;2.58;;
35917;SDS011;22011;59.912;30.300;2024-02-26T10:29:35;4.57;;;2.53;;
35917;SDS011;22011;59.912;30.300;2024-02-26T10:32:03;5.15;;;2.58;;
35917;SDS011;22011;59.912;30.300;2024-02-26T10:34:31;5.50;;;2.38;;
35917;SDS011;22011;59.912;30.300;2024-02-26T10:37:00;3.05;;;2.03;;
35917;SDS011;22011;59.912;30.300;2024-02-26T10:39:29;2.67;;;1.73;;
35917;SDS011;22011;59.912;30.300;2024-02-26T10:41:57;4.03;;;1.98;;
35917;SDS011;22011;59.912;30.300;2024-02-26T10:44:26;3.38;;;2.10;;
35917;SDS011;22011;59.912;30.300;2024-02-26T10:46:53;2.22;;;1.77;;
35917;SDS011;22011;59.912;30.300;2024-02-26T10:49:22;2.65;;;1.70;;
35917;SDS011;22011;59.912;30.300;2024-02-26T10:51:51;2.38;;;1.65;;
35917;SDS011;22011;59.912;30.300;2024-02-26T10:54:23;4.35;;;1.88;;
35917;SDS011;22011;59.912;30.300;2024-02-26T10:56:54;3.50;;;1.67;;
35917;SDS011;22011;59.912;30.300;2024-02-26T10:59:23;2.60;;;1.83;;
35917;SDS011;22011;59.912;30.300;2024-02-26T11:01:53;2.60;;;1.42;;
35917;SDS011;22011;59.912;30.300;2024-02-26T11:04:22;5.93;;;1.65;;
35917;SDS011;22011;59.912;30.300;2024-02-26T11:06:53;4.47;;;1.45;;
35917;SDS011;22011;59.912;30.300;2024-02-26T11:09:23;3.55;;;1.70;;
35917;SDS011;22011;59.912;30.300;2024-02-26T11:11:52;2.70;;;2.03;;
35917;SDS011;22011;59.912;30.300;2024-02-26T11:14:21;2.85;;;1.67;;
35917;SDS011;22011;59.912;30.300;2024-02-26T11:16:53;2.65;;;1.85;;
35917;SDS011;22011;59.912;30.300;2024-02-26T11:19:22;2.13;;;1.30;;
35917;SDS011;22011;59.912;30.300;2024-02-26T11:21:53;1.98;;;1.20;;
35917;SDS011;22011;59.912;30.300;2024-02-26T11:24:22;1.50;;;1.17;;
35917;SDS011;22011;59.912;30.300;2024-02-26T11:26:50;3.22;;;1.50;;
35917;SDS011;22011;59.912;30.300;2024-02-26T11:29:25;4.05;;;1.40;;
35917;SDS011;22011;59.912;30.300;2024-02-26T11:31:58;2.08;;;1.50;;
35917;SDS011;22011;59.912;30.300;2024-02-26T11:34:27;3.00;;;1.50;;
35917;SDS011;22011;59.912;30.300;2024-02-26T11:36:55;2.70;;;1.83;;
35917;SDS011;22011;59.912;30.300;2024-02-26T11:39:23;2.90;;;1.55;;
35917;SDS011;22011;59.912;30.300;2024-02-26T11:41:52;1.98;;;1.40;;
35917;SDS011;22011;59.912;30.300;2024-02-26T11:44:28;1.90;;;1.50;;
35917;SDS011;22011;59.912;30.300;2024-02-26T11:46:56;3.28;;;2.05;;
35917;SDS011;22011;59.912;30.300;2024-02-26T11:49:30;2.45;;;1.65;;
35917;SDS011;22011;59.912;30.300;2024-02-26T11:51:58;2.53;;;1.50;;
35917;SDS011;22011;59.912;30.300;2024-02-26T11:54:39;4.63;;;1.63;;
35917;SDS011;22011;59.912;30.300;2024-02-26T11:57:21;1.70;;;1.48;;
35917;SDS011;22011;59.912;30.300;2024-02-26T11:59:53;4.50;;;1.63;;
35917;SDS011;22011;59.912;30.300;2024-02-26T12:05:14;5.97;;;2.97;;
35917;SDS011;22011;59.912;30.300;2024-02-26T12:07:46;5.45;;;1.95;;
35917;SDS011;22011;59.912;30.300;2024-02-26T12:10:15;5.25;;;2.00;;
35917;SDS011;22011;59.912;30.300;2024-02-26T12:12:47;5.95;;;1.48;;
35917;SDS011;22011;59.912;30.300;2024-02-26T12:15:16;8.73;;;2.67;;
35917;SDS011;22011;59.912;30.300;2024-02-26T12:17:49;1.77;;;1.50;;
35917;SDS011;22011;59.912;30.300;2024-02-26T12:20:18;3.65;;;1.67;;
35917;SDS011;22011;59.912;30.300;2024-02-26T12:22:46;10.48;;;2.20;;
35917;SDS011;22011;59.912;30.300;2024-02-26T12:27:49;4.13;;;1.50;;
35917;SDS011;22011;59.912;30.300;2024-02-26T12:30:17;3.80;;;1.40;;
35917;SDS011;22011;59.912;30.300;2024-02-26T12:32:45;3.30;;;1.52;;
35917;SDS011;22011;59.912;30.300;2024-02-26T12:35:15;3.03;;;1.50;;
35917;SDS011;22011;59.912;30.300;2024-02-26T12:37:44;3.78;;;1.60;;
35917;SDS011;22011;59.912;30.300;2024-02-26T12:40:12;4.28;;;1.73;;
35917;SDS011;22011;59.912;30.300;2024-02-26T12:42:39;3.88;;;1.80;;
35917;SDS011;22011;59.912;30.300;2024-02-26T12:45:07;2.67;;;1.67;;
35917;SDS011;22011;59.912;30.300;2024-02-26T12:47:37;11.45;;;1.95;;
35917;SDS011;22011;59.912;30.300;2024-02-26T12:50:06;3.78;;;1.90;;
35917;SDS011;22011;59.912;30.300;2024-02-26T12:52:37;4.07;;;1.75;;
35917;SDS011;22011;59.912;30.300;2024-02-26T12:55:06;5.13;;;3.17;;
35917;SDS011;22011;59.912;30.300;2024-02-26T12:57:35;6.40;;;1.67;;
35917;SDS011;22011;59.912;30.300;2024-02-26T13:00:05;5.97;;;1.67;;
35917;SDS011;22011;59.912;30.300;2024-02-26T13:02:35;1.05;;;0.95;;
35917;SDS011;22011;59.912;30.300;2024-02-26T13:05:05;1.63;;;1.20;;
35917;SDS011;22011;59.912;30.300;2024-02-26T13:07:44;2.83;;;1.27;;
35917;SDS011;22011;59.912;30.300;2024-02-26T13:10:13;2.67;;;1.80;;
35917;SDS011;22011;59.912;30.300;2024-02-26T13:12:43;2.83;;;1.75;;
35917;SDS011;22011;59.912;30.300;2024-02-26T13:15:14;7.55;;;2.28;;
35917;SDS011;22011;59.912;30.300;2024-02-26T13:17:43;3.47;;;2.17;;
35917;SDS011;22011;59.912;30.300;2024-02-26T13:20:11;6.30;;;2.15;;
35917;SDS011;22011;59.912;30.300;2024-02-26T13:22:40;4.80;;;1.60;;
35917;SDS011;22011;59.912;30.300;2024-02-26T13:25:10;5.38;;;1.90;;
35917;SDS011;22011;59.912;30.300;2024-02-26T13:27:37;5.65;;;2.38;;
35917;SDS011;22011;59.912;30.300;2024-02-26T13:30:06;7.40;;;1.55;;
35917;SDS011;22011;59.912;30.300;2024-02-26T13:32:37;3.95;;;1.90;;
35917;SDS011;22011;59.912;30.300;2024-02-26T13:35:06;2.58;;;2.10;;
35917;SDS011;22011;59.912;30.300;2024-02-26T13:37:35;16.42;;;2.97;;
35917;SDS011;22011;59.912;30.300;2024-02-26T13:40:06;6.68;;;2.08;;
35917;SDS011;22011;59.912;30.300;2024-02-26T13:42:37;4.18;;;1.67;;
35917;SDS011;22011;59.912;30.300;2024-02-26T13:45:05;8.88;;;3.10;;
35917;SDS011;22011;59.912;30.300;2024-02-26T13:47:33;13.60;;;3.45;;
35917;SDS011;22011;59.912;30.300;2024-02-26T13:50:01;6.88;;;2.00;;
35917;SDS011;22011;59.912;30.300;2024-02-26T13:52:30;6.50;;;2.20;;
35917;SDS011;22011;59.912;30.300;2024-02-26T13:55:00;6.20;;;1.85;;
35917;SDS011;22011;59.912;30.300;2024-02-26T13:57:30;4.63;;;1.77;;
35917;SDS011;22011;59.912;30.300;2024-02-26T13:59:59;2.20;;;1.52;;
35917;SDS011;22011;59.912;30.300;2024-02-26T14:02:27;6.60;;;1.92;;
35917;SDS011;22011;59.912;30.300;2024-02-26T14:04:55;1.90;;;1.70;;
35917;SDS011;22011;59.912;30.300;2024-02-26T14:07:24;2.78;;;1.52;;
35917;SDS011;22011;59.912;30.300;2024-02-26T14:09:54;4.45;;;1.40;;
35917;SDS011;22011;59.912;30.300;2024-02-26T14:12:21;2.25;;;1.60;;
35917;SDS011;22011;59.912;30.300;2024-02-26T14:14:49;4.75;;;1.98;;
35917;SDS011;22011;59.912;30.300;2024-02-26T14:17:20;3.78;;;1.70;;
35917;SDS011;22011;59.912;30.300;2024-02-26T14:19:48;11.05;;;3.13;;
35917;SDS011;22011;59.912;30.300;2024-02-26T14:22:15;10.57;;;2.22;;
35917;SDS011;22011;59.912;30.300;2024-02-26T14:24:43;5.28;;;2.28;;
35917;SDS011;22011;59.912;30.300;2024-02-26T14:27:12;7.70;;;2.53;;
35917;SDS011;22011;59.912;30.300;2024-02-26T14:29:43;5.00;;;2.38;;
35917;SDS011;22011;59.912;30.300;2024-02-26T14:32:11;7.55;;;3.03;;
35917;SDS011;22011;59.912;30.300;2024-02-26T14:34:40;11.73;;;2.60;;
35917;SDS011;22011;59.912;30.300;2024-02-26T14:37:08;9.32;;;2.72;;
35917;SDS011;22011;59.912;30.300;2024-02-26T14:39:37;5.13;;;3.05;;
35917;SDS011;22011;59.912;30.300;2024-02-26T14:42:04;9.15;;;2.50;;
35917;SDS011;22011;59.912;30.300;2024-02-26T14:44:33;5.05;;;2.70;;
35917;SDS011;22011;59.912;30.300;2024-02-26T14:47:02;7.07;;;2.42;;